sensor_id;sensor_type;location;lat;lon;timestamp;pressure;altitude;pressure_sealevel;temperature;humidity
2401;BME280;1211;43.200;27.914;2023-05-03T00:00:13;101954.78;;;16.88;100.00
2401;BME280;1211;43.200;27.914;2023-05-03T00:02:41;101947.13;;;16.85;100.00
2401;BME280;1211;43.200;27.914;2023-05-03T00:05:09;101942.13;;;16.79;100.00
2401;BME280;1211;43.200;27.914;2023-05-03T00:07:37;101938.50;;;16.78;100.00
2401;BME280;1211;43.200;27.914;2023-05-03T00:10:06;101944.47;;;16.89;100.00
2401;BME280;1211;43.200;27.914;2023-05-03T00:12:34;101946.25;;;16.73;100.00
2401;BME280;1211;43.200;27.914;2023-05-03T00:15:01;101945.84;;;16.83;100.00
2401;BME280;1211;43.200;27.914;2023-05-03T00:17:27;101943.88;;;17.04;100.00
2401;BME280;1211;43.200;27.914;2023-05-03T00:19:54;101944.06;;;16.99;100.00
2401;BME280;1211;43.200;27.914;2023-05-03T00:22:20;101945.28;;;17.10;100.00
2401;BME280;1211;43.200;27.914;2023-05-03T00:24:49;101936.22;;;16.80;100.00
2401;BME280;1211;43.200;27.914;2023-05-03T00:27:16;101944.34;;;16.85;100.00
2401;BME280;1211;43.200;27.914;2023-05-03T00:29:42;101940.97;;;16.80;100.00
2401;BME280;1211;43.200;27.914;2023-05-03T00:32:09;101943.13;;;16.95;100.00
2401;BME280;1211;43.200;27.914;2023-05-03T00:34:36;101934.97;;;16.90;100.00
2401;BME280;1211;43.200;27.914;2023-05-03T00:37:02;101934.03;;;16.86;100.00
2401;BME280;1211;43.200;27.914;2023-05-03T00:39:29;101931.84;;;16.71;100.00
2401;BME280;1211;43.200;27.914;2023-05-03T00:41:58;101921.53;;;16.92;100.00
2401;BME280;1211;43.200;27.914;2023-05-03T00:44:25;101936.31;;;17.05;100.00
2401;BME280;1211;43.200;27.914;2023-05-03T00:46:52;101934.72;;;16.83;100.00
2401;BME280;1211;43.200;27.914;2023-05-03T00:49:19;101928.94;;;16.67;100.00
2401;BME280;1211;43.200;27.914;2023-05-03T00:51:46;101928.19;;;16.79;100.00
2401;BME280;1211;43.200;27.914;2023-05-03T00:54:13;101922.09;;;16.85;100.00
2401;BME280;1211;43.200;27.914;2023-05-03T00:56:40;101927.38;;;16.58;100.00
2401;BME280;1211;43.200;27.914;2023-05-03T00:59:08;101917.34;;;16.65;100.00
2401;BME280;1211;43.200;27.914;2023-05-03T01:01:35;101913.56;;;16.70;100.00
2401;BME280;1211;43.200;27.914;2023-05-03T01:04:01;101916.19;;;16.66;100.00
2401;BME280;1211;43.200;27.914;2023-05-03T01:06:31;101909.81;;;16.66;100.00
2401;BME280;1211;43.200;27.914;2023-05-03T01:09:05;101911.94;;;16.69;100.00
2401;BME280;1211;43.200;27.914;2023-05-03T01:11:40;101905.41;;;16.65;100.00
2401;BME280;1211;43.200;27.914;2023-05-03T01:14:13;101911.38;;;16.75;100.00
2401;BME280;1211;43.200;27.914;2023-05-03T01:16:46;101910.03;;;16.61;100.00
2401;BME280;1211;43.200;27.914;2023-05-03T01:19:18;101908.91;;;16.53;100.00
2401;BME280;1211;43.200;27.914;2023-05-03T01:21:46;101906.09;;;16.62;100.00
2401;BME280;1211;43.200;27.914;2023-05-03T01:24:17;101905.56;;;16.68;100.00
2401;BME280;1211;43.200;27.914;2023-05-03T01:26:46;101908.44;;;16.72;100.00
2401;BME280;1211;43.200;27.914;2023-05-03T01:29:13;101908.38;;;16.60;100.00
2401;BME280;1211;43.200;27.914;2023-05-03T01:31:41;101911.34;;;16.55;100.00
2401;BME280;1211;43.200;27.914;2023-05-03T01:34:13;101912.56;;;16.45;100.00
2401;BME280;1211;43.200;27.914;2023-05-03T01:36:42;101904.44;;;16.40;100.00
2401;BME280;1211;43.200;27.914;2023-05-03T01:39:11;101914.00;;;16.72;100.00
2401;BME280;1211;43.200;27.914;2023-05-03T01:41:39;101913.28;;;16.63;100.00
2401;BME280;1211;43.200;27.914;2023-05-03T01:44:09;101917.38;;;16.57;100.00
2401;BME280;1211;43.200;27.914;2023-05-03T01:46:40;101918.88;;;16.54;100.00
2401;BME280;1211;43.200;27.914;2023-05-03T01:49:07;101917.13;;;16.49;100.00
2401;BME280;1211;43.200;27.914;2023-05-03T01:51:33;101908.53;;;16.63;100.00
2401;BME280;1211;43.200;27.914;2023-05-03T01:54:00;101912.28;;;16.59;100.00
2401;BME280;1211;43.200;27.914;2023-05-03T01:56:27;101914.50;;;16.74;100.00
2401;BME280;1211;43.200;27.914;2023-05-03T01:58:54;101911.22;;;16.72;100.00
2401;BME280;1211;43.200;27.914;2023-05-03T02:01:22;101912.16;;;16.55;100.00
2401;BME280;1211;43.200;27.914;2023-05-03T02:03:49;101895.34;;;16.52;100.00
2401;BME280;1211;43.200;27.914;2023-05-03T02:06:15;101908.38;;;16.60;100.00
2401;BME280;1211;43.200;27.914;2023-05-03T02:08:42;101902.81;;;16.80;100.00
2401;BME280;1211;43.200;27.914;2023-05-03T02:11:08;101909.47;;;16.67;100.00
2401;BME280;1211;43.200;27.914;2023-05-03T02:13:36;101910.34;;;16.80;100.00
2401;BME280;1211;43.200;27.914;2023-05-03T02:16:03;101912.28;;;16.59;100.00
2401;BME280;1211;43.200;27.914;2023-05-03T02:18:31;101909.47;;;16.67;100.00
2401;BME280;1211;43.200;27.914;2023-05-03T02:20:59;101905.75;;;16.63;100.00
2401;BME280;1211;43.200;27.914;2023-05-03T02:23:26;101910.69;;;16.58;100.00
2401;BME280;1211;43.200;27.914;2023-05-03T02:25:53;101906.41;;;16.39;100.00
2401;BME280;1211;43.200;27.914;2023-05-03T02:28:19;101907.75;;;16.33;100.00
2401;BME280;1211;43.200;27.914;2023-05-03T02:30:46;101906.06;;;16.41;100.00
2401;BME280;1211;43.200;27.914;2023-05-03T02:33:13;101916.09;;;16.54;100.00
2401;BME280;1211;43.200;27.914;2023-05-03T02:35:41;101922.56;;;16.46;100.00
2401;BME280;1211;43.200;27.914;2023-05-03T02:38:08;101925.78;;;16.48;100.00
2401;BME280;1211;43.200;27.914;2023-05-03T02:40:34;101919.34;;;16.56;100.00
2401;BME280;1211;43.200;27.914;2023-05-03T02:43:01;101924.94;;;16.77;100.00
2401;BME280;1211;43.200;27.914;2023-05-03T02:45:28;101922.50;;;16.75;100.00
2401;BME280;1211;43.200;27.914;2023-05-03T02:47:54;101920.72;;;16.71;100.00
2401;BME280;1211;43.200;27.914;2023-05-03T02:50:21;101922.47;;;16.55;100.00
2401;BME280;1211;43.200;27.914;2023-05-03T02:52:49;101912.66;;;16.78;100.00
2401;BME280;1211;43.200;27.914;2023-05-03T02:55:15;101922.19;;;16.27;100.00
2401;BME280;1211;43.200;27.914;2023-05-03T02:57:42;101920.22;;;16.27;100.00
2401;BME280;1211;43.200;27.914;2023-05-03T03:00:09;101918.06;;;16.54;100.00
2401;BME280;1211;43.200;27.914;2023-05-03T03:02:39;101924.00;;;16.73;100.00
2401;BME280;1211;43.200;27.914;2023-05-03T03:05:06;101921.16;;;16.61;100.00
2401;BME280;1211;43.200;27.914;2023-05-03T03:07:33;101921.97;;;16.61;100.00
2401;BME280;1211;43.200;27.914;2023-05-03T03:10:01;101924.81;;;16.73;100.00
2401;BME280;1211;43.200;27.914;2023-05-03T03:12:28;101927.75;;;16.47;100.00
2401;BME280;1211;43.200;27.914;2023-05-03T03:14:54;101925.94;;;16.52;100.00
2401;BME280;1211;43.200;27.914;2023-05-03T03:17:21;101924.88;;;16.65;100.00
2401;BME280;1211;43.200;27.914;2023-05-03T03:19:48;101923.50;;;16.71;100.00
2401;BME280;1211;43.200;27.914;2023-05-03T03:22:14;101923.06;;;16.69;100.00
2401;BME280;1211;43.200;27.914;2023-05-03T03:24:41;101926.16;;;16.88;100.00
2401;BME280;1211;43.200;27.914;2023-05-03T03:27:09;101926.19;;;16.59;100.00
2401;BME280;1211;43.200;27.914;2023-05-03T03:29:35;101928.97;;;17.00;100.00
2401;BME280;1211;43.200;27.914;2023-05-03T03:32:02;101930.66;;;16.80;100.00
2401;BME280;1211;43.200;27.914;2023-05-03T03:34:29;101923.50;;;17.24;100.00
2401;BME280;1211;43.200;27.914;2023-05-03T03:36:56;101934.50;;;17.09;100.00
2401;BME280;1211;43.200;27.914;2023-05-03T03:39:23;101931.72;;;16.88;100.00
2401;BME280;1211;43.200;27.914;2023-05-03T03:41:49;101940.28;;;16.83;100.00
2401;BME280;1211;43.200;27.914;2023-05-03T03:44:17;101948.78;;;17.19;100.00
2401;BME280;1211;43.200;27.914;2023-05-03T03:46:44;101957.03;;;16.95;100.00
2401;BME280;1211;43.200;27.914;2023-05-03T03:49:11;101949.38;;;16.92;100.00
2401;BME280;1211;43.200;27.914;2023-05-03T03:51:37;101951.47;;;16.95;100.00
2401;BME280;1211;43.200;27.914;2023-05-03T03:54:04;101949.63;;;16.99;100.00
2401;BME280;1211;43.200;27.914;2023-05-03T03:56:30;101947.31;;;17.01;100.00
2401;BME280;1211;43.200;27.914;2023-05-03T03:58:57;101950.81;;;17.31;100.00
2401;BME280;1211;43.200;27.914;2023-05-03T04:01:25;101940.28;;;16.83;100.00
2401;BME280;1211;43.200;27.914;2023-05-03T04:03:52;101940.53;;;16.90;100.00
2401;BME280;1211;43.200;27.914;2023-05-03T04:06:18;101942.78;;;17.29;100.00
2401;BME280;1211;43.200;27.914;2023-05-03T04:08:45;101939.41;;;17.24;100.00
2401;BME280;1211;43.200;27.914;2023-05-03T04:11:12;101944.16;;;17.23;100.00
2401;BME280;1211;43.200;27.914;2023-05-03T04:13:38;101943.81;;;17.25;100.00
2401;BME280;1211;43.200;27.914;2023-05-03T04:16:05;101938.00;;;17.18;100.00
2401;BME280;1211;43.200;27.914;2023-05-03T04:18:33;101945.63;;;17.54;100.00
2401;BME280;1211;43.200;27.914;2023-05-03T04:21:00;101950.50;;;17.45;100.00
2401;BME280;1211;43.200;27.914;2023-05-03T04:23:26;101952.69;;;17.39;100.00
2401;BME280;1211;43.200;27.914;2023-05-03T04:25:53;101961.66;;;17.45;100.00
2401;BME280;1211;43.200;27.914;2023-05-03T04:28:21;101954.00;;;17.54;100.00
2401;BME280;1211;43.200;27.914;2023-05-03T04:30:49;101962.94;;;17.59;100.00
2401;BME280;1211;43.200;27.914;2023-05-03T04:33:15;101950.06;;;17.55;100.00
2401;BME280;1211;43.200;27.914;2023-05-03T04:35:43;101958.22;;;17.60;100.00
2401;BME280;1211;43.200;27.914;2023-05-03T04:38:10;101961.03;;;17.72;100.00
2401;BME280;1211;43.200;27.914;2023-05-03T04:40:37;101954.88;;;17.66;100.00
2401;BME280;1211;43.200;27.914;2023-05-03T04:43:03;101949.22;;;17.99;100.00
2401;BME280;1211;43.200;27.914;2023-05-03T04:45:30;101950.13;;;18.03;100.00
2401;BME280;1211;43.200;27.914;2023-05-03T04:47:58;101948.03;;;18.37;100.00
2401;BME280;1211;43.200;27.914;2023-05-03T04:50:25;101942.19;;;18.54;100.00
2401;BME280;1211;43.200;27.914;2023-05-03T04:52:53;101948.69;;;18.70;100.00
2401;BME280;1211;43.200;27.914;2023-05-03T04:55:19;101951.84;;;18.69;100.00
2401;BME280;1211;43.200;27.914;2023-05-03T04:57:46;101956.56;;;18.80;100.00
2401;BME280;1211;43.200;27.914;2023-05-03T05:00:13;101964.06;;;19.04;100.00
2401;BME280;1211;43.200;27.914;2023-05-03T05:02:40;101965.53;;;19.14;100.00
2401;BME280;1211;43.200;27.914;2023-05-03T05:05:08;101971.00;;;18.82;100.00
2401;BME280;1211;43.200;27.914;2023-05-03T05:07:35;101961.72;;;18.66;100.00
2401;BME280;1211;43.200;27.914;2023-05-03T05:10:03;101973.81;;;18.70;100.00
2401;BME280;1211;43.200;27.914;2023-05-03T05:12:30;101985.50;;;19.00;100.00
2401;BME280;1211;43.200;27.914;2023-05-03T05:14:57;101990.84;;;18.93;100.00
2401;BME280;1211;43.200;27.914;2023-05-03T05:17:24;101987.41;;;18.72;100.00
2401;BME280;1211;43.200;27.914;2023-05-03T05:19:51;101996.38;;;18.41;100.00
2401;BME280;1211;43.200;27.914;2023-05-03T05:22:18;101985.66;;;18.43;100.00
2401;BME280;1211;43.200;27.914;2023-05-03T05:24:46;101990.66;;;18.49;100.00
2401;BME280;1211;43.200;27.914;2023-05-03T05:27:14;101991.03;;;18.36;100.00
2401;BME280;1211;43.200;27.914;2023-05-03T05:29:41;102000.44;;;18.43;100.00
2401;BME280;1211;43.200;27.914;2023-05-03T05:32:08;102001.81;;;18.74;100.00
2401;BME280;1211;43.200;27.914;2023-05-03T05:34:34;102001.00;;;18.73;100.00
2401;BME280;1211;43.200;27.914;2023-05-03T05:37:01;101995.41;;;18.85;100.00
2401;BME280;1211;43.200;27.914;2023-05-03T05:39:29;101998.47;;;18.68;100.00
2401;BME280;1211;43.200;27.914;2023-05-03T05:41:56;102002.00;;;19.05;100.00
2401;BME280;1211;43.200;27.914;2023-05-03T05:44:24;101994.34;;;19.73;100.00
2401;BME280;1211;43.200;27.914;2023-05-03T05:46:51;102002.28;;;19.71;100.00
2401;BME280;1211;43.200;27.914;2023-05-03T05:49:18;102005.88;;;19.72;100.00
2401;BME280;1211;43.200;27.914;2023-05-03T05:51:45;102013.22;;;19.92;100.00
2401;BME280;1211;43.200;27.914;2023-05-03T05:54:11;102011.59;;;18.80;100.00
2401;BME280;1211;43.200;27.914;2023-05-03T05:56:38;102015.09;;;18.77;100.00
2401;BME280;1211;43.200;27.914;2023-05-03T05:59:05;102018.94;;;19.12;100.00
2401;BME280;1211;43.200;27.914;2023-05-03T06:01:33;102009.97;;;18.67;100.00
2401;BME280;1211;43.200;27.914;2023-05-03T06:03:59;102015.47;;;19.03;100.00
2401;BME280;1211;43.200;27.914;2023-05-03T06:06:26;102011.63;;;19.35;100.00
2401;BME280;1211;43.200;27.914;2023-05-03T06:08:53;102022.28;;;19.58;100.00
2401;BME280;1211;43.200;27.914;2023-05-03T06:11:20;102017.81;;;19.85;100.00
2401;BME280;1211;43.200;27.914;2023-05-03T06:13:46;102021.09;;;19.87;100.00
2401;BME280;1211;43.200;27.914;2023-05-03T06:16:13;102040.25;;;19.72;100.00
2401;BME280;1211;43.200;27.914;2023-05-03T06:18:41;102036.66;;;19.72;100.00
2401;BME280;1211;43.200;27.914;2023-05-03T06:21:08;102030.84;;;19.37;100.00
2401;BME280;1211;43.200;27.914;2023-05-03T06:23:35;102031.75;;;19.41;100.00
2401;BME280;1211;43.200;27.914;2023-05-03T06:26:03;102030.91;;;20.12;100.00
2401;BME280;1211;43.200;27.914;2023-05-03T06:28:30;102037.16;;;20.21;100.00
2401;BME280;1211;43.200;27.914;2023-05-03T06:30:57;102032.94;;;20.78;100.00
2401;BME280;1211;43.200;27.914;2023-05-03T06:33:23;102030.25;;;21.01;100.00
2401;BME280;1211;43.200;27.914;2023-05-03T06:35:52;102028.84;;;20.40;100.00
2401;BME280;1211;43.200;27.914;2023-05-03T06:38:18;102012.41;;;19.92;100.00
2401;BME280;1211;43.200;27.914;2023-05-03T06:40:45;101996.13;;;19.50;100.00
2401;BME280;1211;43.200;27.914;2023-05-03T06:43:12;102003.81;;;19.69;100.00
2401;BME280;1211;43.200;27.914;2023-05-03T06:45:40;102013.19;;;19.77;100.00
2401;BME280;1211;43.200;27.914;2023-05-03T06:48:07;102013.78;;;19.54;100.00
2401;BME280;1211;43.200;27.914;2023-05-03T06:50:34;102012.03;;;19.78;100.00
2401;BME280;1211;43.200;27.914;2023-05-03T06:53:02;102002.50;;;19.23;100.00
2401;BME280;1211;43.200;27.914;2023-05-03T06:55:29;102011.84;;;19.43;100.00
2401;BME280;1211;43.200;27.914;2023-05-03T06:57:57;102007.31;;;19.66;100.00
2401;BME280;1211;43.200;27.914;2023-05-03T07:00:24;102003.94;;;19.17;100.00
2401;BME280;1211;43.200;27.914;2023-05-03T07:02:50;102009.84;;;18.87;100.00
2401;BME280;1211;43.200;27.914;2023-05-03T07:05:17;102020.19;;;19.55;100.00
2401;BME280;1211;43.200;27.914;2023-05-03T07:07:44;102018.72;;;18.77;100.00
2401;BME280;1211;43.200;27.914;2023-05-03T07:10:12;102031.91;;;18.92;100.00
2401;BME280;1211;43.200;27.914;2023-05-03T07:12:38;102024.03;;;19.22;100.00
2401;BME280;1211;43.200;27.914;2023-05-03T07:15:05;102023.53;;;19.60;100.00
2401;BME280;1211;43.200;27.914;2023-05-03T07:17:32;102019.44;;;20.17;100.00
2401;BME280;1211;43.200;27.914;2023-05-03T07:19:59;102025.31;;;20.28;100.00
2401;BME280;1211;43.200;27.914;2023-05-03T07:22:26;102025.75;;;20.30;99.83
2401;BME280;1211;43.200;27.914;2023-05-03T07:24:52;102031.19;;;20.07;100.00
2401;BME280;1211;43.200;27.914;2023-05-03T07:27:22;102022.25;;;20.17;100.00
2401;BME280;1211;43.200;27.914;2023-05-03T07:29:49;102016.22;;;20.15;100.00
2401;BME280;1211;43.200;27.914;2023-05-03T07:32:16;102036.31;;;20.05;100.00
2401;BME280;1211;43.200;27.914;2023-05-03T07:34:43;102030.03;;;20.39;98.89
2401;BME280;1211;43.200;27.914;2023-05-03T07:37:09;102045.44;;;20.65;96.77
2401;BME280;1211;43.200;27.914;2023-05-03T07:39:36;102051.09;;;21.19;93.52
2401;BME280;1211;43.200;27.914;2023-05-03T07:42:03;102061.19;;;21.62;89.17
2401;BME280;1211;43.200;27.914;2023-05-03T07:44:31;102078.03;;;22.72;84.48
2401;BME280;1211;43.200;27.914;2023-05-03T07:46:58;102082.72;;;21.77;83.18
2401;BME280;1211;43.200;27.914;2023-05-03T07:49:24;102080.25;;;21.53;84.49
2401;BME280;1211;43.200;27.914;2023-05-03T07:51:51;102075.41;;;22.83;81.93
2401;BME280;1211;43.200;27.914;2023-05-03T07:54:18;102080.91;;;22.76;80.18
2401;BME280;1211;43.200;27.914;2023-05-03T07:56:45;102092.81;;;22.69;81.16
2401;BME280;1211;43.200;27.914;2023-05-03T07:59:12;102098.94;;;23.57;76.03
2401;BME280;1211;43.200;27.914;2023-05-03T08:01:40;102108.41;;;22.89;75.00
2401;BME280;1211;43.200;27.914;2023-05-03T08:04:07;102120.66;;;22.09;79.53
2401;BME280;1211;43.200;27.914;2023-05-03T08:06:34;102131.88;;;21.32;81.22
2401;BME280;1211;43.200;27.914;2023-05-03T08:09:02;102133.50;;;21.91;79.50
2401;BME280;1211;43.200;27.914;2023-05-03T08:11:29;102135.63;;;23.68;74.09
2401;BME280;1211;43.200;27.914;2023-05-03T08:13:56;102146.88;;;23.38;71.37
2401;BME280;1211;43.200;27.914;2023-05-03T08:16:23;102146.94;;;24.05;70.19
2401;BME280;1211;43.200;27.914;2023-05-03T08:18:51;102144.28;;;22.99;72.95
2401;BME280;1211;43.200;27.914;2023-05-03T08:21:18;102135.09;;;22.76;74.47
2401;BME280;1211;43.200;27.914;2023-05-03T08:23:46;102118.16;;;21.85;74.61
2401;BME280;1211;43.200;27.914;2023-05-03T08:26:12;102135.78;;;21.66;77.79
2401;BME280;1211;43.200;27.914;2023-05-03T08:28:39;102135.81;;;22.05;78.32
2401;BME280;1211;43.200;27.914;2023-05-03T08:31:06;102135.56;;;21.56;79.64
2401;BME280;1211;43.200;27.914;2023-05-03T08:33:35;102136.47;;;20.59;83.90
2401;BME280;1211;43.200;27.914;2023-05-03T08:36:04;102137.03;;;20.48;86.98
2401;BME280;1211;43.200;27.914;2023-05-03T08:38:31;102141.16;;;20.86;84.49
2401;BME280;1211;43.200;27.914;2023-05-03T08:40:58;102147.13;;;20.53;86.18
2401;BME280;1211;43.200;27.914;2023-05-03T08:43:31;102150.84;;;19.98;89.11
2401;BME280;1211;43.200;27.914;2023-05-03T08:46:01;102138.19;;;20.79;87.22
2401;BME280;1211;43.200;27.914;2023-05-03T08:48:28;102136.97;;;21.85;82.54
2401;BME280;1211;43.200;27.914;2023-05-03T08:50:54;102136.06;;;22.65;77.93
2401;BME280;1211;43.200;27.914;2023-05-03T08:53:23;102143.63;;;23.36;76.51
2401;BME280;1211;43.200;27.914;2023-05-03T08:55:50;102143.00;;;23.20;74.22
2401;BME280;1211;43.200;27.914;2023-05-03T08:58:17;102156.50;;;23.11;74.15
2401;BME280;1211;43.200;27.914;2023-05-03T09:00:44;102136.91;;;23.14;72.75
2401;BME280;1211;43.200;27.914;2023-05-03T09:03:11;102144.25;;;23.49;71.51
2401;BME280;1211;43.200;27.914;2023-05-03T09:05:38;102153.91;;;23.51;73.12
2401;BME280;1211;43.200;27.914;2023-05-03T09:08:08;102140.75;;;23.92;69.72
2401;BME280;1211;43.200;27.914;2023-05-03T09:10:37;102136.25;;;24.61;68.82
2401;BME280;1211;43.200;27.914;2023-05-03T09:13:05;102134.63;;;24.57;65.09
2401;BME280;1211;43.200;27.914;2023-05-03T09:15:32;102127.13;;;23.61;70.35
2401;BME280;1211;43.200;27.914;2023-05-03T09:18:05;102105.75;;;24.71;65.96
2401;BME280;1211;43.200;27.914;2023-05-03T09:20:32;102113.72;;;24.61;65.80
2401;BME280;1211;43.200;27.914;2023-05-03T09:22:59;102109.03;;;24.83;64.52
2401;BME280;1211;43.200;27.914;2023-05-03T09:25:40;102099.50;;;25.71;62.83
2401;BME280;1211;43.200;27.914;2023-05-03T09:28:07;102108.78;;;25.68;61.34
2401;BME280;1211;43.200;27.914;2023-05-03T09:30:33;102118.94;;;24.19;63.20
2401;BME280;1211;43.200;27.914;2023-05-03T09:33:00;102118.78;;;24.05;65.28
2401;BME280;1211;43.200;27.914;2023-05-03T09:35:28;102111.44;;;23.60;66.94
2401;BME280;1211;43.200;27.914;2023-05-03T09:37:56;102115.88;;;22.55;69.11
2401;BME280;1211;43.200;27.914;2023-05-03T09:40:23;102112.81;;;22.18;72.25
2401;BME280;1211;43.200;27.914;2023-05-03T09:43:07;102110.91;;;22.94;70.97
2401;BME280;1211;43.200;27.914;2023-05-03T09:45:35;102102.50;;;23.88;67.41
2401;BME280;1211;43.200;27.914;2023-05-03T09:48:03;102114.38;;;24.44;66.19
2401;BME280;1211;43.200;27.914;2023-05-03T09:50:30;102095.84;;;24.91;64.65
2401;BME280;1211;43.200;27.914;2023-05-03T09:52:58;102096.28;;;24.45;64.84
2401;BME280;1211;43.200;27.914;2023-05-03T09:55:26;102102.13;;;24.26;65.96
2401;BME280;1211;43.200;27.914;2023-05-03T09:58:08;102084.63;;;25.99;61.83
2401;BME280;1211;43.200;27.914;2023-05-03T10:00:36;102079.22;;;25.48;61.99
2401;BME280;1211;43.200;27.914;2023-05-03T10:03:07;102078.22;;;26.19;59.48
2401;BME280;1211;43.200;27.914;2023-05-03T10:05:35;102072.00;;;23.90;61.22
2401;BME280;1211;43.200;27.914;2023-05-03T10:08:06;102076.03;;;24.33;64.63
2401;BME280;1211;43.200;27.914;2023-05-03T10:10:34;102073.13;;;25.35;61.79
2401;BME280;1211;43.200;27.914;2023-05-03T10:13:00;102068.16;;;24.52;61.42
2401;BME280;1211;43.200;27.914;2023-05-03T10:15:29;102068.31;;;23.49;62.99
2401;BME280;1211;43.200;27.914;2023-05-03T10:17:56;102065.25;;;23.64;62.22
2401;BME280;1211;43.200;27.914;2023-05-03T10:20:29;102069.38;;;24.55;60.05
2401;BME280;1211;43.200;27.914;2023-05-03T10:23:11;102063.94;;;23.88;61.03
2401;BME280;1211;43.200;27.914;2023-05-03T10:25:39;102064.34;;;23.27;60.76
2401;BME280;1211;43.200;27.914;2023-05-03T10:28:06;102074.44;;;22.49;63.46
2401;BME280;1211;43.200;27.914;2023-05-03T10:30:35;102068.19;;;23.41;63.37
2401;BME280;1211;43.200;27.914;2023-05-03T10:35:52;102052.25;;;22.93;64.84
2401;BME280;1211;43.200;27.914;2023-05-03T10:38:20;102058.06;;;22.54;64.54
2401;BME280;1211;43.200;27.914;2023-05-03T10:40:48;102068.22;;;22.85;63.08
2401;BME280;1211;43.200;27.914;2023-05-03T10:51:45;102054.03;;;22.29;65.98
2401;BME280;1211;43.200;27.914;2023-05-03T10:54:12;102051.38;;;21.94;65.04
2401;BME280;1211;43.200;27.914;2023-05-03T10:56:49;102039.84;;;21.76;64.66
2401;BME280;1211;43.200;27.914;2023-05-03T10:59:16;102055.94;;;21.79;64.38
2401;BME280;1211;43.200;27.914;2023-05-03T11:01:42;102048.06;;;21.47;64.68
2401;BME280;1211;43.200;27.914;2023-05-03T11:04:10;102043.75;;;21.14;65.05
2401;BME280;1211;43.200;27.914;2023-05-03T11:06:39;102044.97;;;20.78;66.32
2401;BME280;1211;43.200;27.914;2023-05-03T11:09:08;102048.28;;;20.84;66.26
2401;BME280;1211;43.200;27.914;2023-05-03T11:11:36;102039.38;;;20.78;67.81
2401;BME280;1211;43.200;27.914;2023-05-03T11:14:04;102035.25;;;20.91;67.24
2401;BME280;1211;43.200;27.914;2023-05-03T11:16:31;102034.75;;;21.05;65.78
2401;BME280;1211;43.200;27.914;2023-05-03T11:19:01;102022.22;;;20.64;66.14
2401;BME280;1211;43.200;27.914;2023-05-03T11:21:28;102040.78;;;20.37;64.38
2401;BME280;1211;43.200;27.914;2023-05-03T11:23:56;102037.59;;;20.54;67.45
2401;BME280;1211;43.200;27.914;2023-05-03T11:26:25;102033.50;;;21.03;67.79
2401;BME280;1211;43.200;27.914;2023-05-03T11:28:52;102032.38;;;20.53;69.21
2401;BME280;1211;43.200;27.914;2023-05-03T11:31:19;102022.81;;;20.89;67.84
2401;BME280;1211;43.200;27.914;2023-05-03T11:33:46;102023.22;;;20.72;66.52
2401;BME280;1211;43.200;27.914;2023-05-03T11:36:14;102025.59;;;20.07;71.57
2401;BME280;1211;43.200;27.914;2023-05-03T11:38:41;102025.59;;;20.07;75.07
2401;BME280;1211;43.200;27.914;2023-05-03T11:41:11;102007.72;;;19.96;76.76
2401;BME280;1211;43.200;27.914;2023-05-03T11:43:41;102019.38;;;19.54;78.16
2401;BME280;1211;43.200;27.914;2023-05-03T11:46:08;102003.72;;;19.81;74.46
2401;BME280;1211;43.200;27.914;2023-05-03T11:48:35;102005.00;;;20.46;74.20
2401;BME280;1211;43.200;27.914;2023-05-03T11:51:05;102007.84;;;19.28;79.10
2401;BME280;1211;43.200;27.914;2023-05-03T11:53:35;102003.97;;;19.60;80.42
2401;BME280;1211;43.200;27.914;2023-05-03T11:56:02;101996.72;;;20.03;79.39
2401;BME280;1211;43.200;27.914;2023-05-03T11:58:28;101995.66;;;19.48;81.77
2401;BME280;1211;43.200;27.914;2023-05-03T12:00:57;102001.94;;;19.89;82.04
2401;BME280;1211;43.200;27.914;2023-05-03T12:03:25;102009.69;;;20.11;77.52
2401;BME280;1211;43.200;27.914;2023-05-03T12:05:52;102008.44;;;20.55;72.70
2401;BME280;1211;43.200;27.914;2023-05-03T12:08:19;101994.28;;;20.68;73.55
2401;BME280;1211;43.200;27.914;2023-05-03T12:10:45;102013.31;;;19.96;80.81
2401;BME280;1211;43.200;27.914;2023-05-03T12:13:12;102015.91;;;20.04;82.19
2401;BME280;1211;43.200;27.914;2023-05-03T12:15:40;102004.38;;;19.74;82.10
2401;BME280;1211;43.200;27.914;2023-05-03T12:18:11;101999.75;;;19.82;83.60
2401;BME280;1211;43.200;27.914;2023-05-03T12:20:38;101995.59;;;19.76;83.10
2401;BME280;1211;43.200;27.914;2023-05-03T12:23:06;102012.44;;;19.36;86.45
2401;BME280;1211;43.200;27.914;2023-05-03T12:25:33;101995.94;;;19.59;86.53
2401;BME280;1211;43.200;27.914;2023-05-03T12:28:00;101999.41;;;20.31;83.77
2401;BME280;1211;43.200;27.914;2023-05-03T12:30:28;102015.66;;;20.25;85.29
2401;BME280;1211;43.200;27.914;2023-05-03T12:32:55;102019.28;;;20.26;84.74
2401;BME280;1211;43.200;27.914;2023-05-03T12:35:23;102009.72;;;20.42;83.73
2401;BME280;1211;43.200;27.914;2023-05-03T12:37:49;102003.03;;;20.31;84.91
2401;BME280;1211;43.200;27.914;2023-05-03T12:40:16;102010.88;;;19.94;85.25
2401;BME280;1211;43.200;27.914;2023-05-03T12:42:43;102011.50;;;20.19;86.10
2401;BME280;1211;43.200;27.914;2023-05-03T12:45:10;102009.53;;;20.35;85.96
2401;BME280;1211;43.200;27.914;2023-05-03T12:47:39;102006.19;;;20.30;85.05
2401;BME280;1211;43.200;27.914;2023-05-03T12:50:06;101998.06;;;20.25;84.83
2401;BME280;1211;43.200;27.914;2023-05-03T12:52:34;101984.78;;;20.06;85.26
2401;BME280;1211;43.200;27.914;2023-05-03T12:55:02;101983.88;;;19.55;87.38
2401;BME280;1211;43.200;27.914;2023-05-03T12:57:29;101977.03;;;19.52;89.39
2401;BME280;1211;43.200;27.914;2023-05-03T12:59:56;101981.31;;;19.22;89.71
2401;BME280;1211;43.200;27.914;2023-05-03T13:02:22;101981.13;;;19.86;88.37
2401;BME280;1211;43.200;27.914;2023-05-03T13:04:49;101975.94;;;19.88;88.53
2401;BME280;1211;43.200;27.914;2023-05-03T13:07:19;101977.31;;;20.41;84.97